Terminal Aerodrome Forecast
Issued by NWS

Home | Current Version | Previous Version | Text Only | Print | Product List | Glossary Off
Versions: 1 2 3 4 5 6 7 8 9 10 11 12 13 14 15

152
FTUS43 KTOP 161120
TAFMHK
TAF
KMHK 161120Z 1612/1712 30005KT P6SM SCT030
     FM161300 33007KT P6SM BKN025
     FM161800 33007KT P6SM SCT030=

USA.gov is the U.S. government's official web portal to all federal, state and local government web resources and services.